Time;durP1;ratioP1;P1;durP2;ratioP2;P2;SDS_P1;SDS_P2;PMS_P1;PMS_P2;Temp;Humidity;BMP_temperature;BMP_pressure;BME280_temperature;BME280_humidity;BME280_pressure;Samples;Min_cycle;Max_cycle;Signal;HPM_P1;HPM_P2
2022/01/05 00:02:25;;;;;;;1.45;0.60;;;;;;;;;;5053980;28;20087;-48
2022/01/05 00:04:51;;;;;;;1.77;0.50;;;;;;;;;;5054446;28;20021;-48
2022/01/05 00:07:17;;;;;;;2.45;0.85;;;;;;;;;;5054119;28;20526;-48
2022/01/05 00:09:43;;;;;;;3.35;0.90;;;;;;;;;;5053956;28;20120;-49
2022/01/05 00:12:10;;;;;;;1.50;0.35;;;;;;;;;;5054018;28;20387;-47
2022/01/05 00:14:36;;;;;;;1.50;0.60;;;;;;;;;;5054014;28;20029;-47
2022/01/05 00:17:02;;;;;;;2.95;1.20;;;;;;;;;;5054096;28;20095;-48
2022/01/05 00:19:28;;;;;;;2.92;0.95;;;;;;;;;;5053822;28;20029;-49
2022/01/05 00:21:54;;;;;;;2.55;0.75;;;;;;;;;;5053828;28;20097;-48
2022/01/05 00:24:20;;;;;;;3.83;0.70;;;;;;;;;;5053806;28;20036;-48
2022/01/05 00:26:45;;;;;;;3.40;0.88;;;;;;;;;;5053684;28;20021;-47
2022/01/05 00:29:11;;;;;;;2.03;0.95;;;;;;;;;;5053566;28;20036;-49
2022/01/05 00:31:38;;;;;;;5.10;1.17;;;;;;;;;;5053676;28;20021;-48
2022/01/05 00:34:04;;;;;;;2.88;1.00;;;;;;;;;;5053712;28;20037;-48
2022/01/05 00:36:30;;;;;;;2.28;0.68;;;;;;;;;;5053682;28;20072;-47
2022/01/05 00:38:56;;;;;;;2.35;0.80;;;;;;;;;;5053536;28;20049;-48
2022/01/05 00:41:22;;;;;;;2.33;0.63;;;;;;;;;;5053529;28;20553;-49
2022/01/05 00:43:48;;;;;;;3.13;0.88;;;;;;;;;;5053425;28;20025;-47
2022/01/05 00:46:14;;;;;;;2.63;0.80;;;;;;;;;;5053475;28;20105;-48
2022/01/05 00:48:39;;;;;;;5.20;1.08;;;;;;;;;;5053197;28;20029;-47
2022/01/05 00:51:07;;;;;;;5.30;0.80;;;;;;;;;;5053316;28;20040;-48
2022/01/05 00:53:34;;;;;;;3.28;0.63;;;16.30;84.70;;;;;;5053669;28;20044;-48
2022/01/05 00:56:00;;;;;;;2.22;0.85;;;;;;;;;;5053197;28;20028;-48
2022/01/05 00:58:26;;;;;;;1.65;0.82;;;;;;;;;;5053099;28;20033;-48
2022/01/05 01:00:52;;;;;;;2.88;0.82;;;;;;;;;;5052174;28;20082;-48
2022/01/05 01:03:18;;;;;;;1.38;0.60;;;;;;;;;;5052776;28;20051;-48
2022/01/05 01:05:44;;;;;;;2.83;0.90;;;;;;;;;;5053253;28;20095;-48
2022/01/05 01:08:10;;;;;;;2.35;1.08;;;;;;;;;;5052887;28;20453;-49
2022/01/05 01:10:36;;;;;;;1.98;0.75;;;;;;;;;;5052842;28;20124;-48
2022/01/05 01:13:03;;;;;;;2.65;0.80;;;;;;;;;;5053150;28;20029;-48
2022/01/05 01:15:29;;;;;;;6.63;1.45;;;;;;;;;;5052835;28;20032;-49
2022/01/05 01:17:55;;;;;;;2.72;0.80;;;;;;;;;;5052842;28;20029;-48
2022/01/05 01:20:21;;;;;;;2.80;0.80;;;;;;;;;;5052829;28;20021;-48
2022/01/05 01:22:48;;;;;;;2.75;1.02;;;16.30;86.70;;;;;;5052718;28;20092;-48
2022/01/05 01:25:14;;;;;;;2.75;0.70;;;;;;;;;;5051673;28;20482;-48
2022/01/05 01:27:42;;;;;;;5.25;0.90;;;;;;;;;;5052933;28;20415;-51
2022/01/05 01:30:10;;;;;;;3.58;1.00;;;16.10;85.60;;;;;;5052565;28;20368;-49
2022/01/05 01:32:36;;;;;;;4.22;1.15;;;;;;;;;;5052394;28;20032;-48
2022/01/05 01:35:04;;;;;;;2.20;0.65;;;16.00;86.60;;;;;;5052488;28;20029;-48
2022/01/05 01:37:30;;;;;;;2.70;0.90;;;;;;;;;;5052451;28;20024;-48
2022/01/05 01:39:56;;;;;;;2.90;0.75;;;;;;;;;;5052404;28;20109;-47
2022/01/05 01:42:22;;;;;;;2.88;1.33;;;;;;;;;;5052326;28;20025;-48
2022/01/05 01:44:48;;;;;;;2.38;0.82;;;;;;;;;;5052296;28;20471;-49
2022/01/05 01:47:14;;;;;;;3.05;0.98;;;;;;;;;;5052399;28;20036;-48
2022/01/05 01:49:41;;;;;;;3.00;0.93;;;;;;;;;;5052296;28;20553;-49
2022/01/05 01:52:07;;;;;;;2.03;0.85;;;;;;;;;;5052267;28;20023;-48
2022/01/05 01:54:35;;;;;;;0.65;0.38;;;15.90;86.10;;;;;;5052210;28;20074;-48
2022/01/05 01:57:01;;;;;;;2.22;0.77;;;;;;;;;;5052298;28;20025;-48
2022/01/05 01:59:27;;;;;;;2.28;0.68;;;15.90;83.00;;;;;;5052179;28;20029;-48
2022/01/05 02:01:54;;;;;;;2.15;0.55;;;15.80;85.70;;;;;;5051920;28;20087;-49
2022/01/05 02:04:21;;;;;;;2.47;0.85;;;;;;;;;;5052199;28;20048;-49
2022/01/05 02:06:47;;;;;;;2.95;0.75;;;;;;;;;;5052081;28;20029;-47
2022/01/05 02:09:13;;;;;;;4.00;0.80;;;;;;;;;;5051925;28;20071;-47
2022/01/05 02:11:39;;;;;;;2.22;0.70;;;15.90;84.40;;;;;;5055853;28;20060;-47
2022/01/05 02:14:06;;;;;;;2.67;0.85;;;;;;;;;;5058733;28;20020;-47
2022/01/05 02:16:34;;;;;;;3.60;0.80;;;;;;;;;;5058582;28;20032;-48
2022/01/05 02:19:00;;;;;;;3.60;0.55;;;15.80;82.30;;;;;;5058933;28;20033;-49
2022/01/05 02:21:28;;;;;;;2.45;0.80;;;15.80;85.70;;;;;;5058595;28;20100;-49
2022/01/05 02:23:54;;;;;;;2.67;1.17;;;;;;;;;;5058921;28;20036;-48
2022/01/05 02:26:20;;;;;;;3.05;0.63;;;;;;;;;;5058577;28;20029;-49
2022/01/05 02:28:46;;;;;;;3.75;0.88;;;;;;;;;;5058639;28;20415;-48
2022/01/05 02:31:12;;;;;;;2.40;0.80;;;;;;;;;;5058487;28;20049;-49
2022/01/05 02:33:41;;;;;;;2.47;0.85;;;15.80;85.50;;;;;;5058539;28;20036;-48
2022/01/05 02:36:08;;;;;;;3.15;0.90;;;15.80;85.60;;;;;;5058519;28;20032;-47
2022/01/05 02:38:34;;;;;;;2.40;0.90;;;;;;;;;;5058751;28;20017;-48
2022/01/05 02:41:07;;;;;;;3.00;0.85;;;15.80;85.60;;;;;;5058430;28;20035;-48
2022/01/05 02:43:33;;;;;;;2.10;0.68;;;;;;;;;;5058610;28;20108;-48
2022/01/05 02:45:59;;;;;;;2.95;0.80;;;;;;;;;;5058413;28;20436;-47
2022/01/05 02:48:25;;;;;;;3.75;0.90;;;;;;;;;;5058539;28;20035;-47
2022/01/05 02:50:55;;;;;;;2.70;0.77;;;15.90;85.70;;;;;;5058410;28;20036;-47
2022/01/05 02:53:20;;;;;;;;;;;15.90;86.60;;;;;;5059086;28;20029;-47
2022/01/05 02:55:46;;;;;;;3.10;0.90;;;;;;;;;;5058309;28;19905;-48
2022/01/05 02:58:12;;;;;;;2.72;0.90;;;;;;;;;;5058203;28;20033;-47
2022/01/05 03:00:38;;;;;;;2.38;0.70;;;;;;;;;;5058466;28;20028;-48
2022/01/05 03:03:04;;;;;;;2.05;0.88;;;;;;;;;;5058071;28;20049;-48
2022/01/05 03:05:30;;;;;;;2.40;0.80;;;;;;;;;;5058182;28;20556;-49
2022/01/05 03:07:56;;;;;;;2.63;0.70;;;;;;;;;;5058162;28;20051;-48
2022/01/05 03:10:22;;;;;;;2.15;0.70;;;;;;;;;;5058119;28;20122;-49
2022/01/05 03:12:48;;;;;;;3.33;0.80;;;;;;;;;;5058109;28;20025;-48
2022/01/05 03:15:14;;;;;;;3.10;1.08;;;;;;;;;;5058115;28;20446;-49
2022/01/05 03:17:41;;;;;;;3.55;0.82;;;;;;;;;;5058097;28;20021;-48
2022/01/05 03:20:09;;;;;;;2.35;0.75;;;15.70;86.00;;;;;;5058242;28;20025;-48
2022/01/05 03:22:35;;;;;;;2.35;0.85;;;;;;;;;;5056331;28;20032;-48
2022/01/05 03:25:01;;;;;;;1.42;0.77;;;;;;;;;;5054965;28;20025;-47
2022/01/05 03:27:27;;;;;;;2.30;0.98;;;;;;;;;;5054864;28;20029;-47
2022/01/05 03:29:53;;;;;;;2.55;0.73;;;;;;;;;;5054776;28;20052;-48
2022/01/05 03:32:20;;;;;;;2.67;0.73;;;;;;;;;;5054780;28;20464;-49
2022/01/05 03:34:47;;;;;;;2.97;0.88;;;;;;;;;;5054918;28;20044;-48
2022/01/05 03:37:13;;;;;;;1.92;0.77;;;;;;;;;;5054699;28;20116;-48
2022/01/05 03:39:39;;;;;;;2.47;1.15;;;;;;;;;;5054716;28;20056;-48
2022/01/05 03:42:05;;;;;;;3.92;1.35;;;;;;;;;;5054878;28;20433;-49
2022/01/05 03:44:31;;;;;;;1.58;0.60;;;;;;;;;;5054834;28;20025;-50
2022/01/05 03:46:57;;;;;;;2.67;0.85;;;;;;;;;;5054560;28;20025;-49
2022/01/05 03:49:24;;;;;;;2.25;0.70;;;;;;;;;;5054300;28;20123;-49
2022/01/05 03:51:49;;;;;;;2.15;0.70;;;;;;;;;;5054347;28;20497;-50
2022/01/05 03:54:15;;;;;;;2.25;0.90;;;;;;;;;;5054405;28;20064;-48
2022/01/05 03:56:41;;;;;;;1.95;0.90;;;;;;;;;;5054351;28;20052;-50
2022/01/05 03:59:07;;;;;;;2.10;0.70;;;;;;;;;;5054285;28;20029;-49
2022/01/05 04:01:33;;;;;;;2.50;1.00;;;;;;;;;;5053924;28;20501;-48
2022/01/05 04:04:00;;;;;;;1.98;0.70;;;;;;;;;;5054347;28;20032;-48
2022/01/05 04:06:25;;;;;;;2.78;0.90;;;;;;;;;;5054410;28;20044;-48
2022/01/05 04:08:51;;;;;;;4.15;0.80;;;;;;;;;;5054092;28;20616;-49
2022/01/05 04:11:17;;;;;;;1.58;0.80;;;;;;;;;;5054105;28;20387;-48
2022/01/05 04:13:43;;;;;;;3.97;1.00;;;;;;;;;;5054000;28;20024;-48
2022/01/05 04:16:09;;;;;;;2.63;0.75;;;;;;;;;;5053978;28;20029;-49
2022/01/05 04:18:35;;;;;;;2.85;0.95;;;;;;;;;;5053971;28;20071;-48
2022/01/05 04:21:01;;;;;;;1.95;0.70;;;;;;;;;;5053838;28;20063;-51
2022/01/05 04:23:27;;;;;;;1.85;0.88;;;;;;;;;;5053883;28;20036;-49
2022/01/05 04:25:53;;;;;;;3.08;1.20;;;;;;;;;;5053736;28;20039;-48
2022/01/05 04:28:19;;;;;;;2.65;0.85;;;;;;;;;;5053697;28;20025;-49
2022/01/05 04:30:45;;;;;;;4.40;1.23;;;;;;;;;;5053600;28;20041;-51
2022/01/05 04:33:11;;;;;;;1.52;0.60;;;;;;;;;;5053631;28;20024;-48
2022/01/05 04:35:37;;;;;;;2.45;0.85;;;;;;;;;;5052627;28;20023;-48
2022/01/05 04:38:03;;;;;;;2.88;0.93;;;;;;;;;;5053448;28;20025;-48
2022/01/05 04:40:31;;;;;;;2.05;0.80;;;;;;;;;;5053528;28;20021;-48
2022/01/05 04:42:57;;;;;;;2.90;1.08;;;;;;;;;;5053657;28;20056;-48
2022/01/05 04:45:23;;;;;;;2.50;0.75;;;;;;;;;;5053359;28;20025;-49
2022/01/05 04:47:49;;;;;;;2.47;0.73;;;;;;;;;;5053264;28;20029;-49
2022/01/05 04:50:15;;;;;;;4.88;1.02;;;;;;;;;;5053319;28;20036;-48
2022/01/05 04:52:41;;;;;;;2.35;0.98;;;15.10;83.20;;;;;;5053327;28;20387;-50
2022/01/05 04:55:08;;;;;;;2.22;0.95;;;15.30;85.70;;;;;;5053291;28;20476;-48
2022/01/05 04:57:34;;;;;;;3.15;1.25;;;;;;;;;;5053486;28;20025;-49
2022/01/05 05:00:00;;;;;;;2.25;0.70;;;;;;;;;;5053045;28;20112;-49
2022/01/05 05:02:26;;;;;;;3.47;0.90;;;;;;;;;;5052850;28;20076;-49
2022/01/05 05:04:52;;;;;;;2.80;0.80;;;;;;;;;;5052977;28;20044;-50
2022/01/05 05:07:19;;;;;;;1.95;0.93;;;;;;;;;;5052934;28;20029;-49
2022/01/05 05:09:45;;;;;;;3.17;0.80;;;;;;;;;;5052913;28;20114;-48
2022/01/05 05:12:12;;;;;;;3.45;1.00;;;;;;;;;;5052999;28;20060;-49
2022/01/05 05:14:38;;;;;;;3.50;0.82;;;;;;;;;;5052849;28;20040;-51
2022/01/05 05:17:04;;;;;;;4.18;1.23;;;;;;;;;;5052718;28;20029;-48
2022/01/05 05:19:31;;;;;;;3.25;1.00;;;;;;;;;;5052786;28;20028;-52
2022/01/05 05:21:57;;;;;;;3.05;0.85;;;;;;;;;;5052734;28;20027;-48
2022/01/05 05:24:23;;;;;;;3.05;0.80;;;;;;;;;;5052618;28;20112;-49
2022/01/05 05:26:49;;;;;;;2.58;0.98;;;;;;;;;;5052683;28;20032;-48
2022/01/05 05:29:15;;;;;;;2.33;0.60;;;;;;;;;;5052597;28;20040;-48
2022/01/05 05:31:41;;;;;;;3.65;0.93;;;;;;;;;;5052681;28;20028;-50
2022/01/05 05:34:07;;;;;;;3.72;0.88;;;;;;;;;;5052497;28;20033;-48
2022/01/05 05:36:33;;;;;;;4.10;1.02;;;;;;;;;;5052554;28;20036;-49
2022/01/05 05:38:59;;;;;;;2.42;0.93;;;;;;;;;;5052522;28;20476;-51
2022/01/05 05:41:25;;;;;;;2.63;0.63;;;;;;;;;;5052469;28;20089;-50
2022/01/05 05:43:51;;;;;;;3.10;0.88;;;;;;;;;;5052331;28;20032;-49
2022/01/05 05:46:17;;;;;;;2.35;0.88;;;;;;;;;;5051963;28;20065;-49
2022/01/05 05:48:43;;;;;;;3.15;0.80;;;;;;;;;;5052174;28;20036;-48
2022/01/05 05:51:09;;;;;;;2.33;0.77;;;;;;;;;;5052172;28;20120;-49
2022/01/05 05:53:35;;;;;;;3.30;1.00;;;;;;;;;;5052233;28;20056;-48
2022/01/05 05:56:01;;;;;;;2.05;0.70;;;;;;;;;;5052175;28;20115;-48
2022/01/05 05:58:27;;;;;;;3.08;1.02;;;;;;;;;;5052230;28;20025;-49
2022/01/05 06:00:53;;;;;;;2.03;0.77;;;;;;;;;;5052432;28;20039;-50
2022/01/05 06:03:19;;;;;;;2.53;1.02;;;;;;;;;;5051903;28;20049;-50
2022/01/05 06:05:45;;;;;;;3.90;1.30;;;;;;;;;;5052203;28;20116;-49
2022/01/05 06:08:11;;;;;;;3.42;0.73;;;;;;;;;;5052153;28;20040;-48
2022/01/05 06:10:37;;;;;;;2.25;0.70;;;;;;;;;;5051998;28;20043;-48
2022/01/05 06:13:03;;;;;;;3.45;1.27;;;;;;;;;;5052072;28;20418;-48
2022/01/05 06:15:29;;;;;;;2.63;0.70;;;;;;;;;;5052045;28;20108;-50
2022/01/05 06:17:55;;;;;;;1.90;0.60;;;;;;;;;;5052015;28;20021;-48
2022/01/05 06:20:22;;;;;;;1.95;0.77;;;;;;;;;;5051982;28;20106;-47
2022/01/05 06:22:48;;;;;;;2.50;0.80;;;;;;;;;;5052185;28;20037;-50
2022/01/05 06:25:14;;;;;;;3.33;0.90;;;;;;;;;;5051972;28;20025;-50
2022/01/05 06:27:40;;;;;;;2.03;0.68;;;;;;;;;;5051894;28;20082;-50
2022/01/05 06:30:08;;;;;;;2.10;0.70;;;15.60;85.60;;;;;;5051811;28;20040;-50
2022/01/05 06:32:35;;;;;;;2.45;0.90;;;15.70;85.70;;;;;;5052159;28;20056;-50
2022/01/05 06:35:02;;;;;;;2.70;1.35;;;15.70;85.80;;;;;;5052100;28;20036;-52
2022/01/05 06:37:28;;;;;;;4.93;1.08;;;;;;;;;;5051823;28;20022;-51
2022/01/05 06:39:54;;;;;;;4.50;1.08;;;;;;;;;;5051767;28;20540;-52
2022/01/05 06:42:20;;;;;;;1.90;0.60;;;;;;;;;;5051821;28;20029;-50
2022/01/05 06:44:46;;;;;;;1.58;0.77;;;;;;;;;;5051727;28;20133;-51
2022/01/05 06:47:12;;;;;;;2.45;0.57;;;;;;;;;;5051749;28;20060;-47
2022/01/05 06:49:38;;;;;;;1.98;0.73;;;;;;;;;;5051555;28;20146;-50
2022/01/05 06:52:04;;;;;;;3.53;1.15;;;;;;;;;;5051681;28;20037;-51
2022/01/05 06:54:31;;;;;;;2.08;0.80;;;;;;;;;;5051663;28;20043;-47
2022/01/05 06:56:56;;;;;;;3.78;0.90;;;;;;;;;;5051667;28;20036;-47
2022/01/05 06:59:22;;;;;;;2.17;0.93;;;;;;;;;;5054714;28;20033;-47
2022/01/05 07:01:48;;;;;;;2.55;0.82;;;;;;;;;;5055182;28;20077;-51
2022/01/05 07:04:14;;;;;;;4.85;1.25;;;;;;;;;;5055347;28;20463;-50
2022/01/05 07:06:41;;;;;;;4.07;1.05;;;;;;;;;;5055338;28;20059;-50
2022/01/05 07:09:07;;;;;;;3.67;0.77;;;;;;;;;;5055289;28;20118;-50
2022/01/05 07:11:33;;;;;;;3.67;1.13;;;;;;;;;;5055202;28;20076;-50
2022/01/05 07:13:59;;;;;;;4.05;0.95;;;;;;;;;;5055153;28;20101;-51
2022/01/05 07:16:25;;;;;;;4.05;1.00;;;;;;;;;;5055090;28;20083;-50
2022/01/05 07:18:51;;;;;;;2.92;1.05;;;;;;;;;;5055108;28;20074;-50
2022/01/05 07:21:17;;;;;;;4.82;1.45;;;;;;;;;;5055193;28;20484;-51
2022/01/05 07:23:43;;;;;;;2.10;1.05;;;;;;;;;;5054971;28;20430;-54
2022/01/05 07:26:09;;;;;;;2.72;1.00;;;;;;;;;;5054905;28;20021;-51
2022/01/05 07:28:35;;;;;;;4.43;1.10;;;;;;;;;;5054874;28;20497;-52
2022/01/05 07:31:01;;;;;;;4.13;1.20;;;;;;;;;;5054947;28;20056;-50
2022/01/05 07:33:28;;;;;;;3.83;1.02;;;;;;;;;;5054777;28;20024;-49
2022/01/05 07:35:54;;;;;;;3.05;0.98;;;;;;;;;;5054999;28;20029;-50
2022/01/05 07:38:20;;;;;;;3.50;1.45;;;;;;;;;;5054883;28;20539;-50
2022/01/05 07:40:46;;;;;;;1.92;0.70;;;;;;;;;;5054800;28;20064;-50
2022/01/05 07:43:12;;;;;;;3.97;1.05;;;;;;;;;;5054735;28;20060;-50
2022/01/05 07:45:38;;;;;;;4.35;0.88;;;;;;;;;;5054675;28;20035;-50
2022/01/05 07:48:05;;;;;;;4.57;1.05;;;15.20;86.30;;;;;;5054801;28;20433;-50
2022/01/05 07:50:31;;;;;;;3.60;0.80;;;;;;;;;;5054472;28;20036;-52
2022/01/05 07:53:00;;;;;;;2.25;0.65;;;;;;;;;;5054517;28;20029;-47
2022/01/05 07:55:26;;;;;;;3.73;0.90;;;;;;;;;;5054443;28;20475;-46
2022/01/05 07:57:52;;;;;;;4.55;0.98;;;;;;;;;;5054391;28;20033;-48
2022/01/05 08:00:18;;;;;;;4.97;1.17;;;;;;;;;;5054595;28;20024;-49
2022/01/05 08:02:44;;;;;;;1.45;0.65;;;;;;;;;;5053934;28;20419;-48
2022/01/05 08:05:10;;;;;;;6.07;1.00;;;;;;;;;;5054317;28;20025;-46
2022/01/05 08:07:37;;;;;;;4.70;0.90;;;;;;;;;;5054236;28;20036;-46
2022/01/05 08:10:03;;;;;;;4.07;1.17;;;;;;;;;;5054052;28;20041;-49
2022/01/05 08:12:29;;;;;;;3.03;1.02;;;;;;;;;;5054018;28;20104;-47
2022/01/05 08:14:55;;;;;;;3.95;1.20;;;;;;;;;;5054112;28;20029;-47
2022/01/05 08:17:21;;;;;;;5.80;1.95;;;;;;;;;;5054090;28;20035;-47
2022/01/05 08:19:47;;;;;;;3.70;1.33;;;;;;;;;;5053966;28;20391;-47
2022/01/05 08:22:13;;;;;;;3.38;1.10;;;;;;;;;;5054078;28;20029;-46
2022/01/05 08:24:39;;;;;;;4.70;1.38;;;;;;;;;;5053868;28;20108;-48
2022/01/05 08:27:05;;;;;;;5.75;1.52;;;;;;;;;;5054114;28;20025;-46
2022/01/05 08:29:31;;;;;;;6.78;1.25;;;;;;;;;;5053736;28;20033;-47
2022/01/05 08:32:02;;;;;;;7.47;1.58;;;;;;;;;;5053805;28;20027;-46
2022/01/05 08:34:28;;;;;;;8.70;1.30;;;;;;;;;;5054142;28;20040;-46
2022/01/05 08:36:54;;;;;;;21.48;1.58;;;;;;;;;;5053657;28;20052;-46
2022/01/05 08:39:22;;;;;;;10.88;1.92;;;;;;;;;;5053570;28;20029;-46
2022/01/05 08:41:48;;;;;;;9.60;1.50;;;;;;;;;;5053605;28;20021;-47
2022/01/05 08:44:14;;;;;;;7.22;1.73;;;;;;;;;;5053595;28;20036;-48
2022/01/05 08:46:40;;;;;;;6.82;1.55;;;;;;;;;;5053489;28;20419;-48
2022/01/05 08:49:06;;;;;;;12.75;1.75;;;;;;;;;;5053377;28;20041;-48
2022/01/05 08:51:32;;;;;;;8.93;1.38;;;;;;;;;;5053436;28;20029;-48
2022/01/05 08:53:58;;;;;;;11.20;1.95;;;;;;;;;;5053285;28;20068;-48
2022/01/05 08:56:25;;;;;;;6.80;1.50;;;;;;;;;;5053153;28;20028;-46
2022/01/05 08:58:51;;;;;;;7.40;1.75;;;;;;;;;;5053560;28;20025;-47
2022/01/05 09:01:17;;;;;;;8.77;1.55;;;;;;;;;;5053071;28;20033;-47
2022/01/05 09:03:43;;;;;;;8.95;2.17;;;;;;;;;;5053075;28;20053;-48
2022/01/05 09:06:09;;;;;;;8.00;1.25;;;;;;;;;;5053128;28;20048;-49
2022/01/05 09:08:37;;;;;;;8.38;1.95;;;;;;;;;;5053330;28;20453;-48
2022/01/05 09:11:03;;;;;;;11.88;2.00;;;;;;;;;;5053323;28;20037;-48
2022/01/05 09:13:29;;;;;;;9.18;1.58;;;;;;;;;;5053186;28;20021;-47
2022/01/05 09:15:55;;;;;;;15.10;2.50;;;;;;;;;;5052988;28;20028;-48
2022/01/05 09:18:21;;;;;;;8.88;1.65;;;;;;;;;;5052992;28;20027;-48
2022/01/05 09:20:47;;;;;;;7.63;1.48;;;;;;;;;;5052270;28;20051;-48
2022/01/05 09:23:13;;;;;;;7.47;1.80;;;;;;;;;;5052819;28;20033;-51
2022/01/05 09:25:39;;;;;;;7.95;1.30;;;;;;;;;;5052868;28;20108;-49
2022/01/05 09:28:05;;;;;;;9.85;1.48;;;;;;;;;;5053124;28;20032;-48
2022/01/05 09:30:31;;;;;;;7.93;1.40;;;;;;;;;;5053017;28;20115;-48
2022/01/05 09:32:58;;;;;;;7.13;1.88;;;;;;;;;;5052691;28;20104;-48
2022/01/05 09:35:25;;;;;;;10.85;1.73;;;;;;;;;;5052768;28;20502;-49
2022/01/05 09:43:08;;;;;;;6.47;1.40;;;;;;;;;;5052679;28;20040;-50
2022/01/05 09:45:36;;;;;;;9.07;2.13;;;15.20;85.40;;;;;;5052572;28;20104;-50
2022/01/05 09:48:28;;;;;;;7.38;1.60;;;15.40;79.60;;;;;;5052428;28;20534;-49
2022/01/05 09:51:09;;;;;;;10.48;1.58;;;15.40;79.30;;;;;;5052462;28;20069;-48
2022/01/05 09:53:35;;;;;;;4.75;1.23;;;;;;;;;;5052566;28;20032;-49
2022/01/05 09:56:03;;;;;;;6.93;1.52;;;15.50;84.90;;;;;;5052175;28;20025;-49
2022/01/05 09:58:30;;;;;;;7.55;1.75;;;15.60;81.70;;;;;;5052200;28;20033;-48
2022/01/05 10:00:56;;;;;;;7.38;1.77;;;;;;;;;;5052438;28;20025;-50
2022/01/05 10:03:22;;;;;;;7.93;1.40;;;;;;;;;;5051910;28;20111;-48
2022/01/05 10:05:48;;;;;;;8.43;1.60;;;;;;;;;;5052150;28;20491;-47
2022/01/05 10:08:14;;;;;;;6.35;1.42;;;;;;;;;;5052032;28;20033;-48
2022/01/05 10:10:42;;;;;;;6.13;1.27;;;15.60;84.20;;;;;;5052060;28;20052;-48
2022/01/05 10:13:08;;;;;;;5.53;1.45;;;;;;;;;;5052184;28;20059;-49
2022/01/05 10:15:34;;;;;;;6.65;1.48;;;;;;;;;;5052196;28;20029;-50
2022/01/05 10:18:15;;;;;;;5.50;1.33;;;15.60;78.40;;;;;;5052130;28;20464;-48
2022/01/05 10:20:57;;;;;;;9.27;1.63;;;15.50;78.60;;;;;;5052144;28;20480;-49
2022/01/05 10:23:35;;;;;;;7.63;1.23;;;15.50;78.50;;;;;;5052164;28;20040;-49
2022/01/05 10:26:29;;;;;;;6.95;1.60;;;15.50;78.40;;;;;;5052178;28;20353;-48
2022/01/05 10:28:58;;;;;;;10.05;2.00;;;15.50;84.60;;;;;;5052005;28;20052;-49
2022/01/05 10:31:36;;;;;;;5.60;2.20;;;15.40;78.80;;;;;;5052323;28;20383;-49
2022/01/05 10:34:29;;;;;;;4.03;1.33;;;15.40;79.00;;;;;;5056094;28;20027;-47
2022/01/05 10:37:03;;;;;;;8.85;2.13;;;15.50;78.90;;;;;;5053919;28;20033;-48
2022/01/05 10:39:35;;;;;;;4.93;1.45;;;15.40;79.40;;;;;;5055984;28;20033;-48
2022/01/05 10:42:09;;;;;;;4.90;1.27;;;15.50;79.20;;;;;;5056279;28;20112;-47
2022/01/05 10:44:36;;;;;;;6.80;1.70;;;;;;;;;;5055930;28;20021;-49
2022/01/05 10:47:03;;;;;;;6.05;1.48;;;;;;;;;;5056164;28;20461;-49
2022/01/05 10:49:29;;;;;;;4.63;1.27;;;;;;;;;;5055922;28;20029;-48
2022/01/05 10:51:57;;;;;;;5.50;1.63;;;15.40;85.60;;;;;;5055788;28;20468;-49
2022/01/05 10:54:25;;;;;;;7.45;1.80;;;15.50;85.30;;;;;;5055642;28;20057;-48
2022/01/05 10:56:51;;;;;;;5.55;1.42;;;;;;;;;;5055689;28;20472;-49
2022/01/05 10:59:33;;;;;;;6.13;1.73;;;15.50;79.50;;;;;;5055866;28;20108;-49
2022/01/05 11:01:59;;;;;;;6.32;2.00;;;;;;;;;;5055429;28;20036;-49
2022/01/05 11:04:25;;;;;;;6.28;1.30;;;;;;;;;;5055519;28;20037;-49
2022/01/05 11:07:02;;;;;;;7.40;1.73;;;15.40;79.60;;;;;;5055492;28;20025;-50
2022/01/05 11:09:28;;;;;;;5.35;1.33;;;;;;;;;;5055407;28;20399;-49
2022/01/05 11:11:54;;;;;;;5.55;1.60;;;;;;;;;;5055391;28;20104;-49
2022/01/05 11:14:29;;;;;;;5.32;1.42;;;15.50;85.50;;;;;;5055478;28;20435;-50
2022/01/05 11:16:56;;;;;;;6.88;1.50;;;15.60;83.40;;;;;;5055300;28;20108;-50
2022/01/05 11:19:22;;;;;;;5.97;1.30;;;;;;;;;;5055521;28;20205;-51
2022/01/05 11:22:17;;;;;;;6.22;1.58;;;15.70;79.10;;;;;;5055191;28;20036;-49
2022/01/05 11:24:46;;;;;;;5.72;1.67;;;15.70;84.60;;;;;;5055359;28;20028;-49
2022/01/05 11:27:17;;;;;;;5.25;1.50;;;15.80;78.30;;;;;;5055102;28;20017;-49
2022/01/05 11:29:43;;;;;;;5.72;1.20;;;15.70;81.20;;;;;;5054986;28;20045;-49
2022/01/05 11:32:12;;;;;;;3.83;1.20;;;15.70;84.20;;;;;;5054952;28;20029;-50
2022/01/05 11:34:38;;;;;;;5.00;1.27;;;;;;;;;;5054998;28;20120;-49
2022/01/05 11:37:07;;;;;;;5.63;1.35;;;15.80;84.00;;;;;;5054988;28;20028;-48
2022/01/05 11:39:34;;;;;;;4.90;1.42;;;;;;;;;;5054682;28;20029;-48
2022/01/05 11:42:06;;;;;;;4.78;1.50;;;15.80;84.40;;;;;;5055007;28;20029;-48
2022/01/05 11:44:51;;;;;;;7.38;1.50;;;15.80;84.30;;;;;;5053874;28;20032;-48
2022/01/05 11:47:25;;;;;;;6.13;1.58;;;15.80;84.20;;;;;;5054848;28;20033;-49
2022/01/05 11:49:52;;;;;;;4.03;1.23;;;15.80;83.90;;;;;;5054713;28;20032;-48
2022/01/05 11:52:18;;;;;;;5.47;1.45;;;;;;;;;;5054666;28;20100;-48
2022/01/05 11:55:05;;;;;;;6.35;1.30;;;15.70;78.20;;;;;;5054565;28;20029;-50
2022/01/05 11:57:31;;;;;;;8.45;1.92;;;;;;;;;;5054520;28;20021;-47
2022/01/05 12:00:17;;;;;;;5.32;1.30;;;15.70;78.10;;;;;;5054429;28;20029;-49
2022/01/05 12:02:43;;;;;;;6.10;1.40;;;;;;;;;;5054133;28;20045;-49
2022/01/05 12:05:09;;;;;;;9.07;1.90;;;;;;;;;;5054515;28;20025;-50
2022/01/05 12:07:47;;;;;;;6.43;1.60;;;15.70;78.30;;;;;;5054141;28;20025;-49
2022/01/05 12:10:13;;;;;;;7.43;1.17;;;;;;;;;;5054277;28;20040;-50
2022/01/05 12:13:06;;;;;;;7.43;1.77;;;15.70;78.60;;;;;;5054484;28;20152;-49
2022/01/05 12:15:56;;;;;;;5.55;1.75;;;15.60;78.30;;;;;;5051637;28;20375;-49
2022/01/05 12:18:27;;;;;;;;;;;15.90;85.50;;;;;;5054872;28;20025;-49
2022/01/05 12:20:57;;;;;;;7.40;1.67;;;15.60;81.20;;;;;;5054365;28;20303;-49
2022/01/05 12:23:29;;;;;;;5.53;1.25;;;15.60;84.80;;;;;;5054118;28;20024;-50
2022/01/05 12:26:15;;;;;;;9.20;2.20;;;15.60;84.70;;;;;;5054004;28;20040;-50
2022/01/05 12:28:50;;;;;;;4.47;1.10;;;15.60;85.00;;;;;;5053728;28;20025;-49
2022/01/05 12:31:16;;;;;;;4.78;1.40;;;;;;;;;;5053929;28;20033;-50
2022/01/05 12:33:50;;;;;;;4.50;1.40;;;15.60;85.00;;;;;;5053801;28;20178;-48
2022/01/05 12:36:34;;;;;;;7.32;1.85;;;15.50;78.80;;;;;;5053745;28;20028;-50
2022/01/05 12:39:00;;;;;;;5.35;1.65;;;;;;;;;;5053980;28;20027;-49
2022/01/05 12:41:39;;;;;;;6.80;1.70;;;15.60;78.60;;;;;;5053630;28;20032;-50
2022/01/05 12:44:26;;;;;;;4.20;1.48;;;15.40;84.60;;;;;;5054004;28;20430;-49
2022/01/05 12:46:52;;;;;;;7.47;1.50;;;15.60;83.60;;;;;;5053428;28;20029;-50
2022/01/05 12:49:31;;;;;;;7.32;1.60;;;15.60;79.50;;;;;;5053383;28;20037;-50
2022/01/05 12:52:10;;;;;;;5.15;1.52;;;15.60;79.90;;;;;;5053749;28;20024;-49
2022/01/05 12:54:44;;;;;;;8.55;1.90;;;15.60;81.10;;;;;;5053515;28;20025;-49
2022/01/05 12:57:25;;;;;;;6.72;1.70;;;15.60;87.00;;;;;;5052647;28;20025;-51
2022/01/05 12:59:53;;;;;;;5.85;1.40;;;17.50;85.20;;;;;;5053622;28;20174;-48
2022/01/05 13:02:25;;;;;;;6.75;1.95;;;15.60;82.10;;;;;;5052989;28;20041;-47
2022/01/05 13:04:52;;;;;;;6.88;1.40;;;;;;;;;;5053564;28;20032;-48
2022/01/05 13:07:18;;;;;;;7.95;1.45;;;;;;;;;;5053497;28;20474;-46
2022/01/05 13:09:59;;;;;;;5.63;1.58;;;15.70;83.00;;;;;;5053006;28;20033;-44
2022/01/05 13:12:28;;;;;;;6.45;1.20;;;15.90;89.40;;;;;;5053530;28;20040;-44
2022/01/05 13:14:59;;;;;;;4.78;1.30;;;16.00;83.80;;;;;;5052968;28;20017;-44
2022/01/05 13:17:28;;;;;;;;;;;16.20;90.40;;;;;;5053276;28;20029;-44
2022/01/05 13:20:02;;;;;;;5.28;1.30;;;16.30;90.00;;;;;;5052865;28;19905;-45
2022/01/05 13:22:44;;;;;;;3.78;1.25;;;16.40;84.50;;;;;;5052911;28;20028;-44
2022/01/05 13:25:25;;;;;;;3.63;0.98;;;16.60;84.70;;;;;;5052810;28;20021;-44
2022/01/05 13:28:02;;;;;;;5.18;1.52;;;16.60;85.30;;;;;;5052980;28;20032;-44
2022/01/05 13:30:37;;;;;;;5.45;1.17;;;16.80;90.30;;;;;;5052932;28;20033;-44
2022/01/05 13:33:06;;;;;;;3.63;1.27;;;16.90;90.30;;;;;;5052722;28;20103;-44
2022/01/05 13:35:40;;;;;;;2.97;1.00;;;17.00;84.70;;;;;;5052901;28;20032;-44
2022/01/05 13:38:08;;;;;;;4.45;1.23;;;17.10;90.10;;;;;;5052885;28;20025;-44
2022/01/05 13:40:37;;;;;;;2.20;1.05;;;17.10;90.10;;;;;;5052580;28;20444;-44
2022/01/05 13:43:08;;;;;;;5.68;1.05;;;17.20;84.20;;;;;;5052632;28;20469;-52
2022/01/05 13:45:45;;;;;;;3.72;0.95;;;17.20;89.90;;;;;;5052668;28;20063;-53
2022/01/05 13:48:20;;;;;;;6.25;1.95;;;17.10;84.30;;;;;;5052425;28;20560;-54
2022/01/05 13:50:57;;;;;;;5.10;1.20;;;17.20;84.70;;;;;;5052443;28;20097;-55
2022/01/05 13:53:25;;;;;;;5.63;1.63;;;17.10;90.70;;;;;;5052216;28;20025;-54
2022/01/05 13:55:55;;;;;;;5.22;1.58;;;17.10;85.70;;;;;;5052201;28;20028;-54
2022/01/05 13:58:26;;;;;;;3.78;1.30;;;17.20;85.30;;;;;;5052224;28;20025;-54
2022/01/05 14:01:13;;;;;;;4.60;1.25;;;17.00;90.60;;;;;;5052143;28;20111;-53
2022/01/05 14:03:47;;;;;;;2.88;1.00;;;17.00;85.70;;;;;;5051576;28;20045;-51
2022/01/05 14:06:24;;;;;;;4.57;1.10;;;17.00;85.40;;;;;;5051996;28;20054;-51
2022/01/05 14:09:27;;;;;;;4.25;0.98;;;17.20;85.60;;;;;;5052186;28;20361;-51
2022/01/05 14:11:57;;;;;;;3.85;1.48;;;;;;;;;;5052074;28;20029;-53
2022/01/05 14:14:23;;;;;;;4.40;0.98;;;;;;;;;;5052235;28;20036;-52
2022/01/05 14:16:49;;;;;;;1.83;0.70;;;;;;;;;;5051969;28;20021;-51
2022/01/05 14:19:29;;;;;;;3.28;1.10;;;17.20;90.70;;;;;;5051934;28;20092;-52